sensor_id;sensor_type;location;lat;lon;timestamp;pressure;altitude;pressure_sealevel;temperature;humidity
32131;BME280;18639;50.716;7.086;2023-08-06T00:01:59;99231.50;;;14.98;100.00
32131;BME280;18639;50.716;7.086;2023-08-06T00:04:24;99267.09;;;15.23;100.00
32131;BME280;18639;50.716;7.086;2023-08-06T00:06:49;99252.72;;;15.11;100.00
32131;BME280;18639;50.716;7.086;2023-08-06T00:09:15;99255.34;;;15.11;100.00
32131;BME280;18639;50.716;7.086;2023-08-06T00:11:40;99281.38;;;15.19;100.00
32131;BME280;18639;50.716;7.086;2023-08-06T00:14:06;99225.19;;;14.74;100.00
32131;BME280;18639;50.716;7.086;2023-08-06T00:16:31;99259.91;;;14.91;100.00
32131;BME280;18639;50.716;7.086;2023-08-06T00:18:57;99232.25;;;14.64;100.00
32131;BME280;18639;50.716;7.086;2023-08-06T00:21:22;99264.25;;;14.83;100.00
32131;BME280;18639;50.716;7.086;2023-08-06T00:23:47;99239.78;;;14.67;100.00
32131;BME280;18639;50.716;7.086;2023-08-06T00:26:13;99278.94;;;14.92;100.00
32131;BME280;18639;50.716;7.086;2023-08-06T00:28:38;99263.28;;;14.84;100.00
32131;BME280;18639;50.716;7.086;2023-08-06T00:31:04;99233.63;;;14.68;100.00
32131;BME280;18639;50.716;7.086;2023-08-06T00:33:29;99249.63;;;14.82;100.00
32131;BME280;18639;50.716;7.086;2023-08-06T00:35:54;99188.28;;;14.45;100.00
32131;BME280;18639;50.716;7.086;2023-08-06T00:38:20;99268.59;;;15.00;100.00
32131;BME280;18639;50.716;7.086;2023-08-06T00:40:45;99248.69;;;14.91;100.00
32131;BME280;18639;50.716;7.086;2023-08-06T00:43:10;99284.94;;;15.18;100.00
32131;BME280;18639;50.716;7.086;2023-08-06T00:45:36;99216.63;;;14.82;100.00
32131;BME280;18639;50.716;7.086;2023-08-06T00:48:04;99273.28;;;15.22;100.00
32131;BME280;18639;50.716;7.086;2023-08-06T00:50:29;99277.84;;;15.28;100.00
32131;BME280;18639;50.716;7.086;2023-08-06T00:52:55;99242.31;;;15.11;100.00
32131;BME280;18639;50.716;7.086;2023-08-06T00:55:21;99204.47;;;14.91;100.00
32131;BME280;18639;50.716;7.086;2023-08-06T00:57:47;99230.63;;;15.15;100.00
32131;BME280;18639;50.716;7.086;2023-08-06T01:00:13;99259.34;;;15.31;100.00
32131;BME280;18639;50.716;7.086;2023-08-06T01:02:38;99270.75;;;15.38;100.00
32131;BME280;18639;50.716;7.086;2023-08-06T01:05:04;99260.66;;;15.35;100.00
32131;BME280;18639;50.716;7.086;2023-08-06T01:07:51;99265.38;;;15.40;100.00
32131;BME280;18639;50.716;7.086;2023-08-06T01:15:46;99230.03;;;15.29;100.00
32131;BME280;18639;50.716;7.086;2023-08-06T01:18:14;99243.03;;;15.29;100.00
32131;BME280;18639;50.716;7.086;2023-08-06T01:20:39;99242.41;;;15.27;100.00
32131;BME280;18639;50.716;7.086;2023-08-06T01:23:05;99237.50;;;15.24;100.00
32131;BME280;18639;50.716;7.086;2023-08-06T01:25:34;99243.22;;;15.28;100.00
32131;BME280;18639;50.716;7.086;2023-08-06T01:28:10;99217.59;;;15.15;100.00
32131;BME280;18639;50.716;7.086;2023-08-06T01:30:38;99196.44;;;15.10;100.00
32131;BME280;18639;50.716;7.086;2023-08-06T01:33:10;99173.25;;;14.91;100.00
32131;BME280;18639;50.716;7.086;2023-08-06T01:35:40;99186.09;;;14.92;100.00
32131;BME280;18639;50.716;7.086;2023-08-06T01:38:07;99237.19;;;15.27;100.00
32131;BME280;18639;50.716;7.086;2023-08-06T01:40:32;99226.44;;;15.22;100.00
32131;BME280;18639;50.716;7.086;2023-08-06T01:42:59;99172.25;;;14.84;100.00
32131;BME280;18639;50.716;7.086;2023-08-06T01:45:24;99223.28;;;15.10;100.00
32131;BME280;18639;50.716;7.086;2023-08-06T01:47:50;99194.72;;;14.93;100.00
32131;BME280;18639;50.716;7.086;2023-08-06T01:50:15;99210.41;;;15.01;100.00
32131;BME280;18639;50.716;7.086;2023-08-06T01:52:40;99206.09;;;14.92;100.00
32131;BME280;18639;50.716;7.086;2023-08-06T01:55:06;99189.78;;;14.82;100.00
32131;BME280;18639;50.716;7.086;2023-08-06T01:57:31;99206.06;;;14.84;100.00
32131;BME280;18639;50.716;7.086;2023-08-06T01:59:57;99202.16;;;14.80;100.00
32131;BME280;18639;50.716;7.086;2023-08-06T02:02:22;99196.75;;;14.73;100.00
32131;BME280;18639;50.716;7.086;2023-08-06T02:04:47;99219.22;;;14.82;100.00
32131;BME280;18639;50.716;7.086;2023-08-06T02:07:12;99176.66;;;14.57;100.00
32131;BME280;18639;50.716;7.086;2023-08-06T02:09:38;99211.22;;;14.75;100.00
32131;BME280;18639;50.716;7.086;2023-08-06T02:12:03;99197.63;;;14.64;100.00
32131;BME280;18639;50.716;7.086;2023-08-06T02:14:29;99204.69;;;14.71;100.00
32131;BME280;18639;50.716;7.086;2023-08-06T02:16:54;99208.94;;;14.72;100.00
32131;BME280;18639;50.716;7.086;2023-08-06T02:19:19;99184.50;;;14.65;100.00
32131;BME280;18639;50.716;7.086;2023-08-06T02:21:45;99194.28;;;14.71;100.00
32131;BME280;18639;50.716;7.086;2023-08-06T02:24:10;99209.56;;;14.74;100.00
32131;BME280;18639;50.716;7.086;2023-08-06T02:26:36;99182.22;;;14.62;100.00
32131;BME280;18639;50.716;7.086;2023-08-06T02:29:01;99186.44;;;14.63;100.00
32131;BME280;18639;50.716;7.086;2023-08-06T02:31:26;99182.22;;;14.62;100.00
32131;BME280;18639;50.716;7.086;2023-08-06T02:33:52;99179.44;;;14.64;100.00
32131;BME280;18639;50.716;7.086;2023-08-06T02:36:19;99176.06;;;14.63;100.00
32131;BME280;18639;50.716;7.086;2023-08-06T02:38:44;99193.22;;;14.82;100.00
32131;BME280;18639;50.716;7.086;2023-08-06T02:41:09;99176.94;;;14.80;100.00
32131;BME280;18639;50.716;7.086;2023-08-06T02:43:35;99191.47;;;14.91;100.00
32131;BME280;18639;50.716;7.086;2023-08-06T02:46:00;99139.66;;;14.63;100.00
32131;BME280;18639;50.716;7.086;2023-08-06T02:48:26;99180.75;;;14.94;100.00
32131;BME280;18639;50.716;7.086;2023-08-06T02:50:51;99179.63;;;14.96;100.00
32131;BME280;18639;50.716;7.086;2023-08-06T02:53:17;99144.13;;;14.79;100.00
32131;BME280;18639;50.716;7.086;2023-08-06T02:55:46;99174.94;;;15.00;100.00
32131;BME280;18639;50.716;7.086;2023-08-06T02:58:16;99157.34;;;14.94;100.00
32131;BME280;18639;50.716;7.086;2023-08-06T03:00:42;99154.41;;;14.89;100.00
32131;BME280;18639;50.716;7.086;2023-08-06T03:03:08;99168.59;;;15.02;100.00
32131;BME280;18639;50.716;7.086;2023-08-06T03:05:33;99125.91;;;14.79;100.00
32131;BME280;18639;50.716;7.086;2023-08-06T03:07:59;99143.66;;;14.84;100.00
32131;BME280;18639;50.716;7.086;2023-08-06T03:10:24;99120.84;;;14.78;100.00
32131;BME280;18639;50.716;7.086;2023-08-06T03:12:49;99150.91;;;15.06;100.00
32131;BME280;18639;50.716;7.086;2023-08-06T03:15:15;99153.03;;;15.10;100.00
32131;BME280;18639;50.716;7.086;2023-08-06T03:17:40;99125.63;;;14.90;100.00
32131;BME280;18639;50.716;7.086;2023-08-06T03:20:06;99169.47;;;15.11;100.00
32131;BME280;18639;50.716;7.086;2023-08-06T03:22:32;99155.66;;;15.18;100.00
32131;BME280;18639;50.716;7.086;2023-08-06T03:24:57;99090.63;;;14.77;100.00
32131;BME280;18639;50.716;7.086;2023-08-06T03:27:22;99106.63;;;14.98;100.00
32131;BME280;18639;50.716;7.086;2023-08-06T03:29:51;99143.09;;;15.14;100.00
32131;BME280;18639;50.716;7.086;2023-08-06T03:32:16;99099.63;;;14.90;100.00
32131;BME280;18639;50.716;7.086;2023-08-06T03:34:42;99129.94;;;15.15;100.00
32131;BME280;18639;50.716;7.086;2023-08-06T03:37:07;99132.41;;;15.17;100.00
32131;BME280;18639;50.716;7.086;2023-08-06T03:39:33;99127.34;;;15.24;100.00
32131;BME280;18639;50.716;7.086;2023-08-06T03:41:58;99136.81;;;15.25;100.00
32131;BME280;18639;50.716;7.086;2023-08-06T03:44:23;99088.75;;;15.03;100.00
32131;BME280;18639;50.716;7.086;2023-08-06T03:46:49;99099.97;;;15.03;100.00
32131;BME280;18639;50.716;7.086;2023-08-06T03:49:14;99113.84;;;15.20;100.00
32131;BME280;18639;50.716;7.086;2023-08-06T03:51:39;99064.94;;;14.82;100.00
32131;BME280;18639;50.716;7.086;2023-08-06T03:54:05;99131.44;;;15.26;100.00
32131;BME280;18639;50.716;7.086;2023-08-06T03:56:30;99028.53;;;14.73;100.00
32131;BME280;18639;50.716;7.086;2023-08-06T03:58:56;99069.19;;;14.91;100.00
32131;BME280;18639;50.716;7.086;2023-08-06T04:01:21;99123.47;;;15.28;100.00
32131;BME280;18639;50.716;7.086;2023-08-06T04:03:46;99089.09;;;15.08;100.00
32131;BME280;18639;50.716;7.086;2023-08-06T04:06:12;99093.19;;;15.10;100.00
32131;BME280;18639;50.716;7.086;2023-08-06T04:08:37;99048.88;;;14.86;100.00
32131;BME280;18639;50.716;7.086;2023-08-06T04:11:02;99122.97;;;15.24;100.00
32131;BME280;18639;50.716;7.086;2023-08-06T04:13:28;99094.28;;;15.08;100.00
32131;BME280;18639;50.716;7.086;2023-08-06T04:15:54;99102.13;;;15.16;100.00
32131;BME280;18639;50.716;7.086;2023-08-06T04:18:19;99087.16;;;15.10;100.00
32131;BME280;18639;50.716;7.086;2023-08-06T04:20:45;99070.19;;;14.98;100.00
32131;BME280;18639;50.716;7.086;2023-08-06T04:23:11;99123.97;;;15.31;100.00
32131;BME280;18639;50.716;7.086;2023-08-06T04:25:39;99106.22;;;15.27;100.00
32131;BME280;18639;50.716;7.086;2023-08-06T04:28:05;99092.69;;;15.23;100.00
32131;BME280;18639;50.716;7.086;2023-08-06T04:30:30;99100.50;;;15.23;100.00
32131;BME280;18639;50.716;7.086;2023-08-06T04:32:58;99137.63;;;15.33;100.00
32131;BME280;18639;50.716;7.086;2023-08-06T04:35:24;99119.25;;;15.27;100.00
32131;BME280;18639;50.716;7.086;2023-08-06T04:37:49;99108.31;;;15.15;100.00
32131;BME280;18639;50.716;7.086;2023-08-06T04:40:14;99106.19;;;15.10;100.00
32131;BME280;18639;50.716;7.086;2023-08-06T04:42:40;99060.44;;;14.92;100.00
32131;BME280;18639;50.716;7.086;2023-08-06T04:45:06;99121.19;;;15.25;100.00
32131;BME280;18639;50.716;7.086;2023-08-06T04:47:31;99070.84;;;14.92;100.00
32131;BME280;18639;50.716;7.086;2023-08-06T04:49:58;99098.88;;;15.06;100.00
32131;BME280;18639;50.716;7.086;2023-08-06T04:52:23;99041.53;;;14.73;100.00
32131;BME280;18639;50.716;7.086;2023-08-06T04:54:52;99091.84;;;15.06;100.00
32131;BME280;18639;50.716;7.086;2023-08-06T04:57:18;99133.22;;;15.26;100.00
32131;BME280;18639;50.716;7.086;2023-08-06T04:59:43;99042.97;;;14.76;100.00
32131;BME280;18639;50.716;7.086;2023-08-06T05:02:08;99112.03;;;15.12;100.00
32131;BME280;18639;50.716;7.086;2023-08-06T05:04:34;99132.06;;;15.20;100.00
32131;BME280;18639;50.716;7.086;2023-08-06T05:06:59;99128.50;;;15.21;100.00
32131;BME280;18639;50.716;7.086;2023-08-06T05:09:25;99095.59;;;15.04;100.00
32131;BME280;18639;50.716;7.086;2023-08-06T05:11:50;99098.88;;;15.06;100.00
32131;BME280;18639;50.716;7.086;2023-08-06T05:14:16;99081.28;;;15.00;100.00
32131;BME280;18639;50.716;7.086;2023-08-06T05:16:41;99126.25;;;15.26;100.00
32131;BME280;18639;50.716;7.086;2023-08-06T05:19:06;99113.84;;;15.20;100.00
32131;BME280;18639;50.716;7.086;2023-08-06T05:21:32;99122.97;;;15.24;100.00
32131;BME280;18639;50.716;7.086;2023-08-06T05:23:57;99104.13;;;15.22;100.00
32131;BME280;18639;50.716;7.086;2023-08-06T05:26:22;99119.59;;;15.32;100.00
32131;BME280;18639;50.716;7.086;2023-08-06T05:28:48;99110.28;;;15.21;100.00
32131;BME280;18639;50.716;7.086;2023-08-06T05:31:13;99093.69;;;15.22;100.00
32131;BME280;18639;50.716;7.086;2023-08-06T05:33:38;99137.19;;;15.46;100.00
32131;BME280;18639;50.716;7.086;2023-08-06T05:36:04;99127.91;;;15.43;100.00
32131;BME280;18639;50.716;7.086;2023-08-06T05:38:30;99140.66;;;15.54;100.00
32131;BME280;18639;50.716;7.086;2023-08-06T05:40:55;99127.91;;;15.43;100.00
32131;BME280;18639;50.716;7.086;2023-08-06T05:43:21;99114.84;;;15.27;100.00
32131;BME280;18639;50.716;7.086;2023-08-06T05:45:49;99111.59;;;15.33;100.00
32131;BME280;18639;50.716;7.086;2023-08-06T05:48:14;99123.97;;;15.39;100.00
32131;BME280;18639;50.716;7.086;2023-08-06T05:50:40;99145.31;;;15.51;100.00
32131;BME280;18639;50.716;7.086;2023-08-06T05:53:05;99075.44;;;15.06;100.00
32131;BME280;18639;50.716;7.086;2023-08-06T05:55:30;99140.97;;;15.51;100.00
32131;BME280;18639;50.716;7.086;2023-08-06T05:57:57;99130.19;;;15.46;100.00
32131;BME280;18639;50.716;7.086;2023-08-06T06:00:22;99133.81;;;15.53;100.00
32131;BME280;18639;50.716;7.086;2023-08-06T06:02:48;99137.38;;;15.52;100.00
32131;BME280;18639;50.716;7.086;2023-08-06T06:05:13;99154.16;;;15.58;100.00
32131;BME280;18639;50.716;7.086;2023-08-06T06:07:38;99136.34;;;15.45;100.00
32131;BME280;18639;50.716;7.086;2023-08-06T06:10:04;99163.94;;;15.64;100.00
32131;BME280;18639;50.716;7.086;2023-08-06T06:12:29;99121.22;;;15.41;100.00
32131;BME280;18639;50.716;7.086;2023-08-06T06:14:54;99132.31;;;15.43;100.00
32131;BME280;18639;50.716;7.086;2023-08-06T06:17:20;99166.88;;;15.69;100.00
32131;BME280;18639;50.716;7.086;2023-08-06T06:19:45;99174.88;;;15.76;100.00
32131;BME280;18639;50.716;7.086;2023-08-06T06:22:12;99177.31;;;15.77;100.00
32131;BME280;18639;50.716;7.086;2023-08-06T06:24:37;99152.38;;;15.67;100.00
32131;BME280;18639;50.716;7.086;2023-08-06T06:27:02;99166.41;;;15.74;100.00
32131;BME280;18639;50.716;7.086;2023-08-06T06:29:28;99179.13;;;15.85;100.00
32131;BME280;18639;50.716;7.086;2023-08-06T06:31:53;99141.31;;;15.65;100.00
32131;BME280;18639;50.716;7.086;2023-08-06T06:34:18;99166.72;;;15.87;100.00
32131;BME280;18639;50.716;7.086;2023-08-06T06:36:44;99117.56;;;15.60;100.00
32131;BME280;18639;50.716;7.086;2023-08-06T06:39:09;99187.91;;;16.00;100.00
32131;BME280;18639;50.716;7.086;2023-08-06T06:41:34;99176.19;;;15.96;100.00
32131;BME280;18639;50.716;7.086;2023-08-06T06:44:00;99191.19;;;16.10;100.00
32131;BME280;18639;50.716;7.086;2023-08-06T06:46:25;99178.16;;;16.10;100.00
32131;BME280;18639;50.716;7.086;2023-08-06T06:48:50;99183.06;;;16.13;100.00
32131;BME280;18639;50.716;7.086;2023-08-06T06:51:15;99188.09;;;16.23;100.00
32131;BME280;18639;50.716;7.086;2023-08-06T06:53:41;99182.38;;;16.19;100.00
32131;BME280;18639;50.716;7.086;2023-08-06T06:56:06;99182.22;;;16.29;100.00
32131;BME280;18639;50.716;7.086;2023-08-06T06:58:32;99191.66;;;16.30;100.00
32131;BME280;18639;50.716;7.086;2023-08-06T07:00:57;99180.75;;;16.34;100.00
32131;BME280;18639;50.716;7.086;2023-08-06T07:03:22;99175.22;;;16.37;100.00
32131;BME280;18639;50.716;7.086;2023-08-06T07:05:49;99199.81;;;16.59;100.00
32131;BME280;18639;50.716;7.086;2023-08-06T07:08:14;99200.63;;;16.60;100.00
32131;BME280;18639;50.716;7.086;2023-08-06T07:10:43;99206.34;;;16.71;100.00
32131;BME280;18639;50.716;7.086;2023-08-06T07:13:09;99194.09;;;16.72;100.00
32131;BME280;18639;50.716;7.086;2023-08-06T07:15:34;99188.88;;;16.72;100.00
32131;BME280;18639;50.716;7.086;2023-08-06T07:17:59;99182.84;;;16.71;100.00
32131;BME280;18639;50.716;7.086;2023-08-06T07:20:24;99190.19;;;16.76;100.00
32131;BME280;18639;50.716;7.086;2023-08-06T07:22:50;99188.81;;;16.88;100.00
32131;BME280;18639;50.716;7.086;2023-08-06T07:25:16;99183.59;;;16.88;100.00
32131;BME280;18639;50.716;7.086;2023-08-06T07:27:42;99206.41;;;17.02;100.00
32131;BME280;18639;50.716;7.086;2023-08-06T07:30:07;99195.50;;;16.91;100.00
32131;BME280;18639;50.716;7.086;2023-08-06T07:32:33;99195.34;;;16.92;100.00
32131;BME280;18639;50.716;7.086;2023-08-06T07:34:58;99202.53;;;16.90;100.00
32131;BME280;18639;50.716;7.086;2023-08-06T07:37:26;99198.31;;;16.81;100.00
32131;BME280;18639;50.716;7.086;2023-08-06T07:39:53;99206.78;;;16.83;100.00
32131;BME280;18639;50.716;7.086;2023-08-06T07:42:18;99198.94;;;16.83;100.00
32131;BME280;18639;50.716;7.086;2023-08-06T07:44:51;99221.13;;;16.87;100.00
32131;BME280;18639;50.716;7.086;2023-08-06T07:47:16;99206.78;;;16.83;100.00
32131;BME280;18639;50.716;7.086;2023-08-06T07:49:41;99211.16;;;16.91;100.00
32131;BME280;18639;50.716;7.086;2023-08-06T07:52:07;99204.00;;;16.93;100.00
32131;BME280;18639;50.716;7.086;2023-08-06T07:54:32;99218.19;;;16.98;100.00
32131;BME280;18639;50.716;7.086;2023-08-06T07:56:57;99202.38;;;16.92;100.00
32131;BME280;18639;50.716;7.086;2023-08-06T07:59:23;99213.94;;;16.97;100.00
32131;BME280;18639;50.716;7.086;2023-08-06T08:01:48;99218.81;;;17.00;100.00
32131;BME280;18639;50.716;7.086;2023-08-06T08:04:13;99216.53;;;16.97;100.00
32131;BME280;18639;50.716;7.086;2023-08-06T08:06:38;99191.94;;;16.83;100.00
32131;BME280;18639;50.716;7.086;2023-08-06T08:09:04;99195.00;;;16.95;100.00
32131;BME280;18639;50.716;7.086;2023-08-06T08:11:29;99204.81;;;16.93;100.00
32131;BME280;18639;50.716;7.086;2023-08-06T08:13:54;99222.88;;;17.03;100.00
32131;BME280;18639;50.716;7.086;2023-08-06T08:16:19;99223.03;;;17.01;100.00
32131;BME280;18639;50.716;7.086;2023-08-06T08:18:45;99197.97;;;16.92;100.00
32131;BME280;18639;50.716;7.086;2023-08-06T08:21:10;99196.34;;;16.83;100.00
32131;BME280;18639;50.716;7.086;2023-08-06T08:23:35;99187.06;;;16.80;100.00
32131;BME280;18639;50.716;7.086;2023-08-06T08:26:01;99227.75;;;17.14;100.00
32131;BME280;18639;50.716;7.086;2023-08-06T08:28:27;99202.16;;;17.09;100.00
32131;BME280;18639;50.716;7.086;2023-08-06T08:30:52;99217.72;;;17.25;100.00
32131;BME280;18639;50.716;7.086;2023-08-06T08:33:18;99228.78;;;17.44;100.00
32131;BME280;18639;50.716;7.086;2023-08-06T08:35:45;99200.97;;;17.20;100.00
32131;BME280;18639;50.716;7.086;2023-08-06T08:38:10;99187.78;;;17.13;100.00
32131;BME280;18639;50.716;7.086;2023-08-06T08:40:41;99215.31;;;17.16;100.00
32131;BME280;18639;50.716;7.086;2023-08-06T08:43:08;99231.44;;;17.27;100.00
32131;BME280;18639;50.716;7.086;2023-08-06T08:45:34;99232.47;;;17.10;100.00
32131;BME280;18639;50.716;7.086;2023-08-06T08:48:03;99238.88;;;17.08;100.00
32131;BME280;18639;50.716;7.086;2023-08-06T08:50:29;99224.38;;;16.97;100.00
32131;BME280;18639;50.716;7.086;2023-08-06T08:52:54;99242.59;;;17.05;100.00
32131;BME280;18639;50.716;7.086;2023-08-06T08:55:21;99225.34;;;16.88;100.00
32131;BME280;18639;50.716;7.086;2023-08-06T08:57:46;99242.66;;;16.97;100.00
32131;BME280;18639;50.716;7.086;2023-08-06T09:00:12;99244.59;;;16.95;100.00
32131;BME280;18639;50.716;7.086;2023-08-06T09:02:40;99229.13;;;16.77;100.00
32131;BME280;18639;50.716;7.086;2023-08-06T09:05:07;99238.78;;;16.77;100.00
32131;BME280;18639;50.716;7.086;2023-08-06T09:07:42;99239.25;;;16.80;100.00
32131;BME280;18639;50.716;7.086;2023-08-06T09:10:10;99237.78;;;16.78;100.00
32131;BME280;18639;50.716;7.086;2023-08-06T09:12:37;99253.94;;;16.81;100.00
32131;BME280;18639;50.716;7.086;2023-08-06T09:15:03;99263.72;;;16.88;100.00
32131;BME280;18639;50.716;7.086;2023-08-06T09:17:28;99260.28;;;16.87;100.00
32131;BME280;18639;50.716;7.086;2023-08-06T09:19:54;99241.19;;;16.78;100.00
32131;BME280;18639;50.716;7.086;2023-08-06T09:22:19;99264.19;;;16.83;100.00
32131;BME280;18639;50.716;7.086;2023-08-06T09:24:45;99276.94;;;16.70;100.00
32131;BME280;18639;50.716;7.086;2023-08-06T09:27:11;99273.66;;;16.68;100.00
32131;BME280;18639;50.716;7.086;2023-08-06T09:29:43;99265.31;;;16.40;100.00
32131;BME280;18639;50.716;7.086;2023-08-06T09:32:08;99289.13;;;16.37;100.00
32131;BME280;18639;50.716;7.086;2023-08-06T09:34:34;99276.88;;;16.21;100.00
32131;BME280;18639;50.716;7.086;2023-08-06T09:36:59;99285.19;;;16.25;100.00
32131;BME280;18639;50.716;7.086;2023-08-06T09:39:29;99305.06;;;16.26;100.00
32131;BME280;18639;50.716;7.086;2023-08-06T09:41:58;99301.31;;;16.12;100.00
32131;BME280;18639;50.716;7.086;2023-08-06T09:44:25;99310.41;;;16.08;100.00
32131;BME280;18639;50.716;7.086;2023-08-06T09:46:53;99301.75;;;15.91;100.00
32131;BME280;18639;50.716;7.086;2023-08-06T09:49:20;99302.53;;;15.76;100.00
32131;BME280;18639;50.716;7.086;2023-08-06T09:51:46;99320.63;;;15.85;100.00
32131;BME280;18639;50.716;7.086;2023-08-06T09:54:13;99318.16;;;15.84;100.00
32131;BME280;18639;50.716;7.086;2023-08-06T09:56:40;99316.22;;;15.86;100.00
32131;BME280;18639;50.716;7.086;2023-08-06T09:59:07;99318.50;;;15.81;100.00
32131;BME280;18639;50.716;7.086;2023-08-06T10:01:34;99327.56;;;15.77;100.00
32131;BME280;18639;50.716;7.086;2023-08-06T10:04:01;99317.09;;;15.61;100.00
32131;BME280;18639;50.716;7.086;2023-08-06T10:06:28;99328.25;;;15.79;100.00
32131;BME280;18639;50.716;7.086;2023-08-06T10:08:53;99342.22;;;15.70;100.00
32131;BME280;18639;50.716;7.086;2023-08-06T10:11:21;99308.88;;;15.47;100.00
32131;BME280;18639;50.716;7.086;2023-08-06T10:13:48;99341.19;;;15.63;100.00
32131;BME280;18639;50.716;7.086;2023-08-06T10:16:14;99364.91;;;15.51;100.00
32131;BME280;18639;50.716;7.086;2023-08-06T10:18:40;99323.38;;;15.24;100.00
32131;BME280;18639;50.716;7.086;2023-08-06T10:21:09;99365.47;;;15.45;100.00
32131;BME280;18639;50.716;7.086;2023-08-06T10:23:36;99382.59;;;15.22;100.00
32131;BME280;18639;50.716;7.086;2023-08-06T10:26:03;99385.81;;;15.16;100.00
32131;BME280;18639;50.716;7.086;2023-08-06T10:28:38;99394.66;;;15.05;100.00
32131;BME280;18639;50.716;7.086;2023-08-06T10:31:05;99415.94;;;15.01;100.00
32131;BME280;18639;50.716;7.086;2023-08-06T10:33:49;99389.47;;;14.70;100.00
32131;BME280;18639;50.716;7.086;2023-08-06T10:36:15;99422.03;;;14.74;100.00
32131;BME280;18639;50.716;7.086;2023-08-06T10:38:50;99406.28;;;14.58;100.00
32131;BME280;18639;50.716;7.086;2023-08-06T10:41:22;99376.78;;;14.22;100.00
32131;BME280;18639;50.716;7.086;2023-08-06T10:43:47;99383.56;;;14.05;100.00
32131;BME280;18639;50.716;7.086;2023-08-06T10:46:26;99409.91;;;14.20;100.00
32131;BME280;18639;50.716;7.086;2023-08-06T10:48:51;99402.56;;;14.06;100.00
32131;BME280;18639;50.716;7.086;2023-08-06T10:51:17;99429.22;;;14.08;100.00
32131;BME280;18639;50.716;7.086;2023-08-06T10:53:47;99438.50;;;14.10;100.00
32131;BME280;18639;50.716;7.086;2023-08-06T10:56:16;99423.16;;;13.89;100.00
32131;BME280;18639;50.716;7.086;2023-08-06T10:58:43;99445.69;;;13.99;100.00
32131;BME280;18639;50.716;7.086;2023-08-06T11:01:08;99435.88;;;13.93;100.00
32131;BME280;18639;50.716;7.086;2023-08-06T11:03:34;99412.16;;;13.68;100.00
32131;BME280;18639;50.716;7.086;2023-08-06T11:05:59;99413.38;;;13.74;100.00
32131;BME280;18639;50.716;7.086;2023-08-06T11:08:26;99456.09;;;13.89;100.00
32131;BME280;18639;50.716;7.086;2023-08-06T11:10:52;99432.53;;;13.63;100.00
32131;BME280;18639;50.716;7.086;2023-08-06T11:13:17;99438.88;;;13.51;100.00
32131;BME280;18639;50.716;7.086;2023-08-06T11:15:44;99451.81;;;13.61;100.00
32131;BME280;18639;50.716;7.086;2023-08-06T11:18:10;99491.13;;;13.75;100.00
32131;BME280;18639;50.716;7.086;2023-08-06T11:20:36;99485.41;;;13.72;100.00
32131;BME280;18639;50.716;7.086;2023-08-06T11:23:01;99490.59;;;13.72;100.00
32131;BME280;18639;50.716;7.086;2023-08-06T11:25:26;99502.03;;;13.79;100.00
32131;BME280;18639;50.716;7.086;2023-08-06T11:27:52;99482.00;;;13.71;100.00
32131;BME280;18639;50.716;7.086;2023-08-06T11:30:17;99455.25;;;13.42;100.00
32131;BME280;18639;50.716;7.086;2023-08-06T11:32:46;99440.63;;;13.41;100.00
32131;BME280;18639;50.716;7.086;2023-08-06T11:35:12;99448.41;;;13.51;100.00
32131;BME280;18639;50.716;7.086;2023-08-06T11:37:39;99486.78;;;13.66;100.00
32131;BME280;18639;50.716;7.086;2023-08-06T11:40:09;99437.22;;;13.31;100.00
32131;BME280;18639;50.716;7.086;2023-08-06T11:42:36;99511.63;;;13.88;100.00
32131;BME280;18639;50.716;7.086;2023-08-06T11:45:02;99511.63;;;13.88;100.00
32131;BME280;18639;50.716;7.086;2023-08-06T11:47:28;99519.50;;;13.96;100.00
32131;BME280;18639;50.716;7.086;2023-08-06T11:49:53;99520.75;;;13.92;100.00
32131;BME280;18639;50.716;7.086;2023-08-06T11:52:23;99530.19;;;13.93;100.00
32131;BME280;18639;50.716;7.086;2023-08-06T11:55:06;99528.69;;;13.90;100.00
32131;BME280;18639;50.716;7.086;2023-08-06T11:57:36;99514.38;;;13.77;100.00
32131;BME280;18639;50.716;7.086;2023-08-06T12:02:31;99523.38;;;13.82;100.00
32131;BME280;18639;50.716;7.086;2023-08-06T12:07:41;99540.03;;;13.99;100.00
32131;BME280;18639;50.716;7.086;2023-08-06T12:10:07;99533.22;;;13.88;100.00
32131;BME280;18639;50.716;7.086;2023-08-06T12:12:33;99558.59;;;14.04;100.00
32131;BME280;18639;50.716;7.086;2023-08-06T12:14:59;99547.38;;;14.04;100.00
32131;BME280;18639;50.716;7.086;2023-08-06T12:17:24;99530.72;;;13.97;100.00
32131;BME280;18639;50.716;7.086;2023-08-06T12:19:50;99534.41;;;14.04;100.00
32131;BME280;18639;50.716;7.086;2023-08-06T12:22:16;99558.66;;;14.22;100.00
32131;BME280;18639;50.716;7.086;2023-08-06T12:24:42;99544.75;;;14.13;100.00
32131;BME280;18639;50.716;7.086;2023-08-06T12:27:08;99556.06;;;14.22;100.00
32131;BME280;18639;50.716;7.086;2023-08-06T12:29:34;99544.38;;;14.08;100.00
32131;BME280;18639;50.716;7.086;2023-08-06T12:31:59;99553.09;;;14.17;100.00
32131;BME280;18639;50.716;7.086;2023-08-06T12:34:24;99563.19;;;14.29;100.00
32131;BME280;18639;50.716;7.086;2023-08-06T12:36:49;99553.03;;;14.26;100.00
32131;BME280;18639;50.716;7.086;2023-08-06T12:39:15;99534.34;;;14.23;100.00
32131;BME280;18639;50.716;7.086;2023-08-06T12:41:40;99544.16;;;14.29;100.00
32131;BME280;18639;50.716;7.086;2023-08-06T12:44:05;99551.41;;;14.35;100.00
32131;BME280;18639;50.716;7.086;2023-08-06T12:46:31;99512.94;;;14.02;100.00
32131;BME280;18639;50.716;7.086;2023-08-06T12:48:56;99556.19;;;14.40;100.00
32131;BME280;18639;50.716;7.086;2023-08-06T12:51:23;99561.78;;;14.35;100.00
32131;BME280;18639;50.716;7.086;2023-08-06T12:53:48;99539.44;;;14.15;100.00
32131;BME280;18639;50.716;7.086;2023-08-06T12:56:14;99535.28;;;14.22;100.00